Time;durP1;ratioP1;P1;durP2;ratioP2;P2;SDS_P1;SDS_P2;PMS_P1;PMS_P2;Temp;Humidity;BMP_temperature;BMP_pressure;BME280_temperature;BME280_humidity;BME280_pressure;Samples;Min_cycle;Max_cycle;Signal;HPM_P1;HPM_P2
2023/08/30 00:01:37;;;;;;;;;;;;;;;20.55;62.36;95448.09;5072890;28;19924;-65
2023/08/30 00:04:06;;;;;;;;;;;;;;;20.57;62.57;95449.66;5073119;28;19924;-65
2023/08/30 00:06:33;;;;;;;;;;;;;;;20.50;62.63;95447.72;5073164;28;19924;-65
2023/08/30 00:08:59;;;;;;;;;;;;;;;20.53;62.65;95442.94;5073025;28;20278;-64
2023/08/30 00:11:26;;;;;;;;;;;;;;;20.62;62.65;95443.88;5072925;28;19975;-66
2023/08/30 00:13:53;;;;;;;;;;;;;;;20.63;62.31;95445.56;5073511;28;20370;-63
2023/08/30 00:16:19;;;;;;;;;;;;;;;20.63;62.36;95448.22;5072983;28;19924;-65
2023/08/30 00:18:46;;;;;;;;;;;;;;;20.64;62.46;95443.72;5073236;28;20081;-63
2023/08/30 00:21:13;;;;;;;;;;;;;;;20.65;61.95;95437.44;5076454;28;19935;-65
2023/08/30 00:23:40;;;;;;;;;;;;;;;20.67;61.94;95440.78;5076308;28;19928;-65
2023/08/30 00:26:07;;;;;;;;;;;;;;;20.69;61.87;95433.50;5076595;28;19925;-65
2023/08/30 00:28:33;;;;;;;;;;;;;;;20.60;62.20;95429.94;5076514;28;19924;-65
2023/08/30 00:31:00;;;;;;;;;;;;;;;20.51;62.61;95428.16;5076245;28;19931;-65
2023/08/30 00:33:26;;;;;;;;;;;;;;;20.39;62.74;95427.50;5076245;28;19956;-65
2023/08/30 00:35:57;;;;;;;;;;;;;;;20.38;62.81;95426.66;5076215;28;19929;-65
2023/08/30 00:38:27;;;;;;;;;;;;;;;20.37;62.90;95421.50;5076183;28;19924;-65
2023/08/30 00:40:53;;;;;;;;;;;;;;;20.27;63.06;95419.75;5076205;28;20281;-64
2023/08/30 00:43:20;;;;;;;;;;;;;;;20.31;63.27;95421.13;5076163;28;20023;-64
2023/08/30 00:45:48;;;;;;;;;;;;;;;20.31;63.46;95423.78;5076215;28;19924;-65
2023/08/30 00:48:15;;;;;;;;;;;;;;;20.26;63.35;95430.50;5076374;28;19931;-64
2023/08/30 00:50:42;;;;;;;;;;;;;;;20.28;63.13;95421.41;5075907;28;19929;-65
2023/08/30 00:53:09;;;;;;;;;;;;;;;20.28;63.42;95421.41;5075905;28;19928;-64
2023/08/30 00:55:37;;;;;;;;;;;;;;;20.27;63.44;95416.25;5075764;28;19925;-65
2023/08/30 00:58:04;;;;;;;;;;;;;;;20.27;63.77;95419.75;5075864;28;20018;-64
2023/08/30 01:00:31;;;;;;;;;;;;;;;20.23;64.08;95417.53;5075816;28;19931;-66
2023/08/30 01:02:58;;;;;;;;;;;;;;;20.15;64.06;95421.75;5075819;28;20357;-65
2023/08/30 01:05:25;;;;;;;;;;;;;;;20.13;64.21;95420.19;5075622;28;19925;-64
2023/08/30 01:07:52;;;;;;;;;;;;;;;20.00;64.52;95423.16;5075553;28;20020;-65
2023/08/30 01:10:19;;;;;;;;;;;;;;;20.00;64.71;95421.34;5075479;28;19931;-64
2023/08/30 01:12:49;;;;;;;;;;;;;;;19.98;64.46;95428.59;5075432;28;20431;-66
2023/08/30 01:15:19;;;;;;;;;;;;;;;20.00;64.50;95424.00;5075714;28;19924;-66
2023/08/30 01:17:48;;;;;;;;;;;;;;;20.01;64.68;95424.84;5075292;28;20023;-65
2023/08/30 01:20:17;;;;;;;;;;;;;;;20.00;64.68;95426.66;5075443;28;19925;-65
2023/08/30 01:22:46;;;;;;;;;;;;;;;19.92;64.80;95424.72;5075475;28;20271;-65
2023/08/30 01:25:24;;;;;;;;;;;;;;;19.88;65.25;95431.28;5075274;28;19986;-64
2023/08/30 01:27:53;;;;;;;;;;;;;;;19.90;65.43;95429.31;5075273;28;19974;-65
2023/08/30 01:30:21;;;;;;;;;;;;;;;19.97;64.93;95436.69;5075221;28;20523;-65
2023/08/30 01:32:49;;;;;;;;;;;;;;;19.98;65.21;95435.75;5075086;28;20378;-65
2023/08/30 01:35:18;;;;;;;;;;;;;;;20.03;65.25;95438.81;5075272;28;20003;-65
2023/08/30 01:37:46;;;;;;;;;;;;;;;20.04;65.25;95449.28;5075359;28;19924;-64
2023/08/30 01:40:14;;;;;;;;;;;;;;;20.02;64.79;95450.44;5075000;28;19925;-64
2023/08/30 01:42:41;;;;;;;;;;;;;;;20.04;64.71;95454.59;5074831;28;19925;-64
2023/08/30 01:45:13;;;;;;;;;;;;;;;20.10;65.25;95449.72;5075162;28;19928;-65
2023/08/30 01:47:40;;;;;;;;;;;;;;;20.10;64.80;95450.53;5074808;28;20472;-65
2023/08/30 01:50:08;;;;;;;;;;;;;;;20.09;64.38;95446.22;5075038;28;19987;-65
2023/08/30 01:52:35;;;;;;;;;;;;;;;20.10;64.05;95445.22;5074911;28;19959;-65
2023/08/30 01:55:03;;;;;;;;;;;;;;;20.13;63.76;95444.94;5074765;28;19925;-65
2023/08/30 01:57:30;;;;;;;;;;;;;;;20.17;64.11;95446.31;5074489;28;19925;-65
2023/08/30 01:59:57;;;;;;;;;;;;;;;20.16;64.12;95438.50;5074466;28;20340;-65
2023/08/30 02:02:25;;;;;;;;;;;;;;;20.07;64.47;95435.75;5074489;28;19929;-64
2023/08/30 02:04:51;;;;;;;;;;;;;;;19.93;64.90;95441.47;5074504;28;19924;-66
2023/08/30 02:07:21;;;;;;;;;;;;;;;19.90;64.91;95439.94;5074347;28;20405;-65
2023/08/30 02:09:51;;;;;;;;;;;;;;;19.94;65.37;95435.19;5074382;28;19974;-64
2023/08/30 02:12:19;;;;;;;;;;;;;;;19.95;65.08;95443.00;5074142;28;19982;-65
2023/08/30 02:14:48;;;;;;;;;;;;;;;19.98;65.27;95441.88;5074229;28;19924;-65
2023/08/30 02:17:15;;;;;;;;;;;;;;;19.96;65.16;95443.84;5074319;28;20435;-64
2023/08/30 02:19:44;;;;;;;;;;;;;;;19.93;64.74;95447.59;5074073;28;20328;-65
2023/08/30 02:22:11;;;;;;;;;;;;;;;19.95;64.82;95436.84;5074317;28;19925;-65
2023/08/30 02:24:37;;;;;;;;;;;;;;;19.96;64.84;95438.53;5074045;28;19954;-64
2023/08/30 02:27:04;;;;;;;;;;;;;;;19.97;64.75;95440.22;5074345;28;19925;-64
2023/08/30 02:29:31;;;;;;;;;;;;;;;20.01;64.46;95441.63;5074191;28;19928;-65
2023/08/30 02:31:59;;;;;;;;;;;;;;;20.05;64.50;95443.00;5073947;28;19925;-64
2023/08/30 02:34:26;;;;;;;;;;;;;;;20.06;63.93;95441.19;5073898;28;20019;-65
2023/08/30 02:36:54;;;;;;;;;;;;;;;20.05;64.14;95444.84;5073666;28;19970;-64
2023/08/30 02:39:21;;;;;;;;;;;;;;;20.10;64.13;95439.09;5074025;28;19924;-65
2023/08/30 02:41:48;;;;;;;;;;;;;;;20.07;64.54;95437.53;5073362;28;20325;-65
2023/08/30 02:44:14;;;;;;;;;;;;;;;20.03;64.66;95436.16;5074028;28;20499;-65
2023/08/30 02:46:41;;;;;;;;;;;;;;;19.93;65.21;95439.66;5073758;28;19924;-65
2023/08/30 02:49:09;;;;;;;;;;;;;;;19.86;65.36;95440.38;5073708;28;19925;-65
2023/08/30 02:51:35;;;;;;;;;;;;;;;19.84;65.40;95440.53;5073789;28;19924;-65
2023/08/30 02:54:04;;;;;;;;;;;;;;;19.79;65.12;95437.44;5073693;28;19960;-64
2023/08/30 02:56:30;;;;;;;;;;;;;;;19.76;65.81;95440.38;5073502;28;19975;-64
2023/08/30 02:58:57;;;;;;;;;;;;;;;19.73;66.01;95433.56;5073567;28;19924;-65
2023/08/30 03:01:24;;;;;;;;;;;;;;;19.67;66.11;95428.81;5073776;28;19951;-65
2023/08/30 03:03:51;;;;;;;;;;;;;;;19.60;66.42;95433.88;5073532;28;19964;-65
2023/08/30 03:06:17;;;;;;;;;;;;;;;19.59;66.42;95434.00;5073802;28;19974;-64
2023/08/30 03:08:44;;;;;;;;;;;;;;;19.51;66.61;95434.72;5073513;28;19924;-65
2023/08/30 03:11:13;;;;;;;;;;;;;;;19.53;66.02;95438.03;5073018;28;20263;-64
2023/08/30 03:13:40;;;;;;;;;;;;;;;19.54;66.04;95432.59;5073463;28;19924;-64
2023/08/30 03:16:13;;;;;;;;;;;;;;;19.55;66.42;95431.63;5073418;28;20039;-64
2023/08/30 03:18:39;;;;;;;;;;;;;;;19.52;66.34;95428.41;5073545;28;19954;-65
2023/08/30 03:21:07;;;;;;;;;;;;;;;19.49;66.48;95423.41;5073514;28;19994;-64
2023/08/30 03:23:35;;;;;;;;;;;;;;;19.49;66.55;95418.94;5073280;28;19978;-64
2023/08/30 03:26:08;;;;;;;;;;;;;;;19.43;66.73;95420.34;5073453;28;19936;-65
2023/08/30 03:28:36;;;;;;;;;;;;;;;19.40;66.88;95419.78;5073449;28;19925;-65
2023/08/30 03:31:11;;;;;;;;;;;;;;;19.37;67.03;95412.09;5073219;28;19928;-64
2023/08/30 03:33:38;;;;;;;;;;;;;;;19.30;67.12;95422.44;5073221;28;20396;-65
2023/08/30 03:36:05;;;;;;;;;;;;;;;19.19;67.43;95420.75;5073369;28;20372;-64
2023/08/30 03:38:32;;;;;;;;;;;;;;;19.15;67.53;95425.50;5073185;28;19924;-64
2023/08/30 03:40:58;;;;;;;;;;;;;;;19.09;67.25;95419.94;5073248;28;19924;-65
2023/08/30 03:43:25;;;;;;;;;;;;;;;19.09;67.80;95426.06;5073368;28;20023;-64
2023/08/30 03:45:53;;;;;;;;;;;;;;;19.04;67.97;95430.91;5073056;28;19924;-65
2023/08/30 03:48:21;;;;;;;;;;;;;;;19.05;67.88;95433.41;5073036;28;19932;-64
2023/08/30 03:50:48;;;;;;;;;;;;;;;19.05;68.17;95436.06;5073123;28;19929;-64
2023/08/30 03:53:14;;;;;;;;;;;;;;;19.01;68.23;95437.31;5073412;28;19924;-64
2023/08/30 03:55:41;;;;;;;;;;;;;;;19.02;68.16;95441.63;5076550;28;19931;-65
2023/08/30 03:58:08;;;;;;;;;;;;;;;18.94;68.72;95441.50;5076690;28;19925;-65
2023/08/30 04:00:37;;;;;;;;;;;;;;;18.93;68.71;95445.97;5076695;28;20015;-64
2023/08/30 04:03:05;;;;;;;;;;;;;;;18.93;68.83;95450.41;5076768;28;19928;-65
2023/08/30 04:05:33;;;;;;;;;;;;;;;18.99;68.73;95455.16;5076790;28;19925;-63
2023/08/30 04:08:00;;;;;;;;;;;;;;;18.99;69.33;95455.16;5076743;28;20014;-64
2023/08/30 04:10:27;;;;;;;;;;;;;;;19.06;69.15;95460.75;5076682;28;19928;-63
2023/08/30 04:12:53;;;;;;;;;;;;;;;19.00;69.52;95462.16;5076594;28;19932;-64
2023/08/30 04:15:20;;;;;;;;;;;;;;;19.01;69.47;95457.66;5076448;28;20293;-64
2023/08/30 04:17:47;;;;;;;;;;;;;;;19.11;69.32;95458.56;5076580;28;19962;-64
2023/08/30 04:20:15;;;;;;;;;;;;;;;19.19;68.91;95461.38;5076676;28;19924;-64
2023/08/30 04:22:42;;;;;;;;;;;;;;;19.35;68.90;95457.31;5076579;28;19924;-65
2023/08/30 04:25:09;;;;;;;;;;;;;;;19.40;68.79;95463.03;5076441;28;19924;-65
2023/08/30 04:27:38;;;;;;;;;;;;;;;19.52;68.61;95462.88;5076241;28;20340;-65
2023/08/30 04:30:05;;;;;;;;;;;;;;;19.68;68.28;95468.47;5076244;28;20435;-66
2023/08/30 04:32:32;;;;;;;;;;;;;;;19.90;67.90;95468.28;5076259;28;19978;-65
2023/08/30 04:34:59;;;;;;;;;;;;;;;20.10;67.11;95468.28;5076224;28;19924;-64
2023/08/30 04:37:31;;;;;;;;;;;;;;;20.30;66.15;95469.06;5076304;28;19924;-65
2023/08/30 04:39:58;;;;;;;;;;;;;;;20.62;65.52;95472.28;5076325;28;19948;-65
2023/08/30 04:42:26;;;;;;;;;;;;;;;20.91;64.55;95479.28;5076411;28;20019;-65
2023/08/30 04:44:54;;;;;;;;;;;;;;;21.32;63.69;95482.38;5076271;28;19947;-63
2023/08/30 04:47:21;;;;;;;;;;;;;;;21.75;62.75;95489.75;5076147;28;20358;-65
2023/08/30 04:49:51;;;;;;;;;;;;;;;22.13;61.52;95497.53;5076123;28;19924;-64
2023/08/30 04:52:18;;;;;;;;;;;;;;;22.51;59.89;95493.75;5075972;28;19931;-64
2023/08/30 04:54:46;;;;;;;;;;;;;;;22.85;58.38;95493.72;5075912;28;20412;-64
2023/08/30 04:57:15;;;;;;;;;;;;;;;23.16;57.61;95489.69;5075803;28;20269;-64
2023/08/30 04:59:42;;;;;;;;;;;;;;;23.56;56.53;95492.59;5075883;28;19981;-65
2023/08/30 05:02:09;;;;;;;;;;;;;;;23.92;55.70;95491.44;5075662;28;19924;-65
2023/08/30 05:04:36;;;;;;;;;;;;;;;24.26;55.35;95484.22;5075264;28;20015;-65
2023/08/30 05:07:03;;;;;;;;;;;;;;;24.47;53.97;95490.88;5075572;28;20328;-65
2023/08/30 05:09:32;;;;;;;;;;;;;;;24.80;53.87;95492.63;5075655;28;19928;-65
2023/08/30 05:12:00;;;;;;;;;;;;;;;25.09;51.58;95492.00;5075484;28;19974;-65
2023/08/30 05:14:27;;;;;;;;;;;;;;;25.48;52.40;95490.25;5075538;28;19929;-62
2023/08/30 05:16:54;;;;;;;;;;;;;;;25.90;50.97;95495.31;5075225;28;19948;-66
2023/08/30 05:19:20;;;;;;;;;;;;;;;26.24;48.97;95485.97;5075731;28;19924;-65
2023/08/30 05:21:51;;;;;;;;;;;;;;;26.59;47.89;95488.16;5075328;28;19924;-66
2023/08/30 05:24:20;;;;;;;;;;;;;;;27.01;47.20;95490.38;5075330;28;20007;-66
2023/08/30 05:26:48;;;;;;;;;;;;;;;27.45;46.42;95498.50;5075522;28;20011;-65
2023/08/30 05:29:16;;;;;;;;;;;;;;;27.88;46.22;95490.44;5075253;28;19935;-66
2023/08/30 05:31:43;;;;;;;;;;;;;;;28.22;45.21;95492.56;5075313;28;19924;-66
2023/08/30 05:34:10;;;;;;;;;;;;;;;28.63;44.40;95493.72;5075124;28;19930;-65
2023/08/30 05:36:37;;;;;;;;;;;;;;;28.96;43.65;95494.94;5074960;28;19928;-65
2023/08/30 05:39:05;;;;;;;;;;;;;;;29.24;43.13;95489.47;5074951;28;19924;-66
2023/08/30 05:41:31;;;;;;;;;;;;;;;29.49;42.30;95488.91;5074919;28;19929;-64
2023/08/30 05:43:59;;;;;;;;;;;;;;;29.73;42.57;95493.94;5074887;28;19931;-65
2023/08/30 05:46:27;;;;;;;;;;;;;;;30.02;41.67;95500.81;5074770;28;20289;-65
2023/08/30 05:48:55;;;;;;;;;;;;;;;30.31;41.34;95495.22;5074963;28;19932;-65
2023/08/30 05:51:22;;;;;;;;;;;;;;;30.48;40.32;95509.09;5074616;28;20338;-65
2023/08/30 05:53:49;;;;;;;;;;;;;;;30.73;40.24;95500.31;5074969;28;20103;-65
2023/08/30 05:56:17;;;;;;;;;;;;;;;30.78;38.63;95505.13;5074642;28;19983;-65
2023/08/30 05:58:43;;;;;;;;;;;;;;;30.43;39.89;95499.97;5074491;28;20469;-66
2023/08/30 06:01:10;;;;;;;;;;;;;;;30.61;39.08;95508.22;5074495;28;19972;-65
2023/08/30 06:03:38;;;;;;;;;;;;;;;30.44;40.57;95498.94;5074651;28;19970;-66
2023/08/30 06:06:05;;;;;;;;;;;;;;;30.59;40.18;95498.69;5074562;28;20345;-66
2023/08/30 06:08:32;;;;;;;;;;;;;;;30.50;39.40;95496.25;5074357;28;20007;-66
2023/08/30 06:10:59;;;;;;;;;;;;;;;30.41;39.85;95504.75;5074261;28;19924;-65
2023/08/30 06:13:26;;;;;;;;;;;;;;;30.49;40.37;95507.25;5074494;28;19924;-66
2023/08/30 06:15:53;;;;;;;;;;;;;;;30.88;39.73;95500.09;5074421;28;19924;-66
2023/08/30 06:18:19;;;;;;;;;;;;;;;31.33;38.26;95503.06;5073391;28;19925;-63
2023/08/30 06:20:48;;;;;;;;;;;;;;;31.63;37.55;95511.41;5074300;28;19971;-66
2023/08/30 06:23:15;;;;;;;;;;;;;;;31.97;37.62;95505.00;5074164;28;20393;-66
2023/08/30 06:25:42;;;;;;;;;;;;;;;31.72;37.17;95508.47;5074156;28;19933;-66
2023/08/30 06:28:09;;;;;;;;;;;;;;;31.93;38.95;95518.09;5073874;28;20023;-65
2023/08/30 06:30:35;;;;;;;;;;;;;;;32.14;37.07;95514.22;5074080;28;20348;-66
2023/08/30 06:33:02;;;;;;;;;;;;;;;32.20;37.25;95515.19;5073976;28;19971;-66
2023/08/30 06:35:29;;;;;;;;;;;;;;;32.40;37.33;95514.19;5073991;28;19924;-67
2023/08/30 06:37:57;;;;;;;;;;;;;;;32.66;37.65;95517.75;5073863;28;19978;-67
2023/08/30 06:40:24;;;;;;;;;;;;;;;32.98;35.49;95516.75;5073895;28;19947;-66
2023/08/30 06:42:51;;;;;;;;;;;;;;;32.97;36.13;95520.53;5074046;28;20453;-67
2023/08/30 06:45:18;;;;;;;;;;;;;;;33.06;36.52;95518.38;5074086;28;19925;-66
2023/08/30 06:47:45;;;;;;;;;;;;;;;33.21;35.13;95521.53;5073760;28;19925;-66
2023/08/30 06:50:11;;;;;;;;;;;;;;;33.23;36.60;95515.88;5073513;28;20330;-65
2023/08/30 06:52:38;;;;;;;;;;;;;;;33.21;37.29;95516.13;5073725;28;20358;-66
2023/08/30 06:55:07;;;;;;;;;;;;;;;33.28;35.99;95514.13;5073937;28;19974;-66
2023/08/30 06:57:33;;;;;;;;;;;;;;;33.32;35.46;95516.41;5073650;28;20255;-67
2023/08/30 07:00:07;;;;;;;;;;;;;;;33.46;36.45;95519.72;5073532;28;20318;-67
2023/08/30 07:02:34;;;;;;;;;;;;;;;33.77;36.05;95518.72;5073805;28;20087;-67
2023/08/30 07:05:00;;;;;;;;;;;;;;;33.91;36.25;95522.06;5073915;28;19925;-67
2023/08/30 07:07:27;;;;;;;;;;;;;;;33.63;36.35;95517.25;5073604;28;19932;-66
2023/08/30 07:09:54;;;;;;;;;;;;;;;33.02;37.14;95517.97;5073344;28;19925;-65
2023/08/30 07:12:22;;;;;;;;;;;;;;;32.42;38.01;95524.81;5073016;28;19954;-66
2023/08/30 07:14:49;;;;;;;;;;;;;;;31.70;39.52;95526.75;5073508;28;19925;-66
2023/08/30 07:17:16;;;;;;;;;;;;;;;30.88;40.88;95527.09;5073623;28;20393;-65
2023/08/30 07:19:42;;;;;;;;;;;;;;;30.36;42.48;95524.25;5073312;28;20373;-65
2023/08/30 07:22:09;;;;;;;;;;;;;;;30.11;43.03;95530.25;5073400;28;20356;-66
2023/08/30 07:24:36;;;;;;;;;;;;;;;29.61;44.36;95526.03;5073394;28;19924;-65
2023/08/30 07:27:03;;;;;;;;;;;;;;;29.33;44.82;95533.19;5073481;28;20007;-65
2023/08/30 07:29:32;;;;;;;;;;;;;;;29.37;44.85;95534.44;5076950;28;19924;-66
2023/08/30 07:31:58;;;;;;;;;;;;;;;29.84;44.77;95538.28;5077663;28;19998;-65
2023/08/30 07:34:25;;;;;;;;;;;;;;;30.32;42.55;95529.25;5077324;28;20432;-66
2023/08/30 07:36:55;;;;;;;;;;;;;;;30.71;41.61;95525.84;5077473;28;19974;-66
2023/08/30 07:39:21;;;;;;;;;;;;;;;30.84;41.23;95525.03;5077082;28;20011;-65
2023/08/30 07:41:48;;;;;;;;;;;;;;;30.95;40.54;95523.53;5077177;28;20374;-66
2023/08/30 07:44:16;;;;;;;;;;;;;;;30.89;40.53;95533.31;5077237;28;20020;-65
2023/08/30 07:46:44;;;;;;;;;;;;;;;31.11;39.64;95535.72;5077170;28;20427;-66
2023/08/30 07:49:11;;;;;;;;;;;;;;;31.33;40.10;95538.97;5077146;28;19924;-66
2023/08/30 07:51:38;;;;;;;;;;;;;;;31.23;39.43;95538.59;5077066;28;19988;-66
2023/08/30 07:54:05;;;;;;;;;;;;;;;31.20;39.37;95531.75;5077025;28;19925;-66
2023/08/30 07:56:32;;;;;;;;;;;;;;;31.51;38.77;95523.94;5077098;28;19925;-66
2023/08/30 07:58:58;;;;;;;;;;;;;;;31.68;38.01;95524.28;5076938;28;20022;-65
2023/08/30 08:01:25;;;;;;;;;;;;;;;31.92;37.97;95527.28;5076842;28;19924;-65
2023/08/30 08:03:53;;;;;;;;;;;;;;;31.85;37.57;95526.47;5077206;28;19932;-65
2023/08/30 08:06:20;;;;;;;;;;;;;;;32.04;37.65;95535.50;5076771;28;19986;-66
2023/08/30 08:08:47;;;;;;;;;;;;;;;32.19;37.10;95537.03;5076710;28;19925;-67
2023/08/30 08:11:14;;;;;;;;;;;;;;;32.40;36.68;95523.16;5076315;28;20352;-66
2023/08/30 08:13:41;;;;;;;;;;;;;;;31.62;37.41;95530.53;5076746;28;19928;-66
2023/08/30 08:16:08;;;;;;;;;;;;;;;31.65;37.86;95527.41;5076802;28;19991;-65
2023/08/30 08:18:35;;;;;;;;;;;;;;;32.02;37.49;95524.91;5076430;28;19974;-66
2023/08/30 08:21:04;;;;;;;;;;;;;;;31.70;37.28;95524.91;5076483;28;19924;-66
2023/08/30 08:23:30;;;;;;;;;;;;;;;31.87;37.35;95529.75;5076471;28;19931;-66
2023/08/30 08:26:00;;;;;;;;;;;;;;;32.15;37.02;95533.97;5076264;28;20355;-65
2023/08/30 08:28:27;;;;;;;;;;;;;;;32.37;37.71;95541.69;5076474;28;19925;-66
2023/08/30 08:30:54;;;;;;;;;;;;;;;32.48;35.88;95546.41;5076301;28;19931;-67
2023/08/30 08:33:22;;;;;;;;;;;;;;;32.24;36.47;95554.25;5076178;28;20281;-66
2023/08/30 08:35:50;;;;;;;;;;;;;;;32.41;35.59;95534.78;5076185;28;19930;-66
2023/08/30 08:38:18;;;;;;;;;;;;;;;32.45;36.41;95532.47;5076024;28;19978;-66
2023/08/30 08:40:45;;;;;;;;;;;;;;;32.69;36.21;95527.28;5075450;28;19970;-65
2023/08/30 08:43:12;;;;;;;;;;;;;;;32.52;36.85;95535.97;5076468;28;19924;-65
2023/08/30 08:45:39;;;;;;;;;;;;;;;31.93;37.76;95533.50;5076146;28;19978;-66
2023/08/30 08:48:06;;;;;;;;;;;;;;;31.92;38.86;95535.38;5076012;28;20027;-66
2023/08/30 08:50:34;;;;;;;;;;;;;;;32.11;38.77;95530.06;5075979;28;19958;-66
2023/08/30 08:53:02;;;;;;;;;;;;;;;32.44;37.76;95520.81;5075921;28;19970;-66
2023/08/30 08:55:31;;;;;;;;;;;;;;;32.50;37.99;95527.25;5075936;28;20374;-65
2023/08/30 08:57:58;;;;;;;;;;;;;;;32.44;36.20;95528.94;5075698;28;19924;-65
2023/08/30 09:00:25;;;;;;;;;;;;;;;32.55;36.04;95532.81;5075756;28;19925;-65
2023/08/30 09:02:54;;;;;;;;;;;;;;;32.47;36.10;95527.69;5075936;28;19932;-66
2023/08/30 09:05:21;;;;;;;;;;;;;;;32.47;36.98;95530.38;5075627;28;19979;-66
2023/08/30 09:07:48;;;;;;;;;;;;;;;32.59;35.83;95527.81;5075604;28;20366;-66
2023/08/30 09:10:15;;;;;;;;;;;;;;;32.66;36.11;95528.56;5075989;28;19924;-66
2023/08/30 09:12:44;;;;;;;;;;;;;;;31.79;37.24;95520.06;5075308;28;19924;-65
2023/08/30 09:15:11;;;;;;;;;;;;;;;31.61;39.50;95512.69;5075453;28;19975;-66
2023/08/30 09:17:38;;;;;;;;;;;;;;;31.67;37.79;95528.03;5075445;28;20015;-65
2023/08/30 09:20:09;;;;;;;;;;;;;;;31.43;38.27;95516.94;5075394;28;19925;-65
2023/08/30 09:22:39;;;;;;;;;;;;;;;31.55;37.69;95519.78;5075366;28;19925;-66
2023/08/30 09:25:07;;;;;;;;;;;;;;;31.26;38.40;95521.97;5075272;28;20370;-66
2023/08/30 09:27:34;;;;;;;;;;;;;;;31.33;37.94;95505.75;5075308;28;19925;-65
2023/08/30 09:30:04;;;;;;;;;;;;;;;30.73;38.96;95503.03;5075172;28;19959;-66
2023/08/30 09:32:31;;;;;;;;;;;;;;;30.80;38.76;95516.53;5075086;28;19932;-66
2023/08/30 09:34:57;;;;;;;;;;;;;;;30.85;38.21;95508.63;5075193;28;20015;-66
2023/08/30 09:37:26;;;;;;;;;;;;;;;31.07;39.21;95502.97;5075242;28;19971;-66
2023/08/30 09:39:53;;;;;;;;;;;;;;;31.23;38.77;95496.22;5074967;28;19925;-66
2023/08/30 09:42:20;;;;;;;;;;;;;;;31.22;39.18;95500.00;5075264;28;20453;-66
2023/08/30 09:44:47;;;;;;;;;;;;;;;31.47;38.33;95493.03;5075068;28;20432;-67
2023/08/30 09:47:16;;;;;;;;;;;;;;;31.93;38.06;95509.19;5074932;28;19928;-66
2023/08/30 09:49:45;;;;;;;;;;;;;;;31.86;38.05;95503.78;5074949;28;19928;-65
2023/08/30 09:52:13;;;;;;;;;;;;;;;31.70;37.90;95497.88;5073681;28;19931;-66
2023/08/30 09:54:41;;;;;;;;;;;;;;;31.73;38.50;95499.31;5074722;28;19925;-65
2023/08/30 09:57:08;;;;;;;;;;;;;;;31.93;38.57;95491.06;5074668;28;19924;-66
2023/08/30 09:59:37;;;;;;;;;;;;;;;32.09;38.04;95497.00;5074521;28;19978;-65
2023/08/30 10:02:05;;;;;;;;;;;;;;;32.27;36.36;95496.22;5074610;28;19931;-65
2023/08/30 10:04:33;;;;;;;;;;;;;;;31.89;35.81;95496.09;5074719;28;19924;-66
2023/08/30 10:07:04;;;;;;;;;;;;;;;31.65;36.86;95495.00;5074518;28;20346;-66
2023/08/30 10:09:31;;;;;;;;;;;;;;;31.54;35.68;95493.81;5074568;28;19924;-66
2023/08/30 10:12:01;;;;;;;;;;;;;;;31.20;36.64;95498.53;5074389;28;20301;-66
2023/08/30 10:14:28;;;;;;;;;;;;;;;31.27;38.18;95492.06;5074411;28;20438;-65
2023/08/30 10:17:00;;;;;;;;;;;;;;;31.74;37.40;95491.00;5074328;28;19931;-66
2023/08/30 10:19:28;;;;;;;;;;;;;;;31.96;36.22;95490.66;5074222;28;19978;-66
2023/08/30 10:22:01;;;;;;;;;;;;;;;32.06;36.34;95481.22;5074256;28;19925;-65
2023/08/30 10:24:29;;;;;;;;;;;;;;;32.07;35.23;95480.16;5074143;28;20450;-66
2023/08/30 10:26:57;;;;;;;;;;;;;;;31.98;36.21;95480.44;5074093;28;19928;-65
2023/08/30 10:29:25;;;;;;;;;;;;;;;32.23;36.26;95484.22;5074283;28;19928;-66
2023/08/30 10:31:53;;;;;;;;;;;;;;;32.50;36.40;95473.97;5074125;28;20340;-66
2023/08/30 10:34:21;;;;;;;;;;;;;;;32.47;35.54;95482.50;5073924;28;19928;-66
2023/08/30 10:37:00;;;;;;;;;;;;;;;32.48;33.90;95478.75;5074145;28;19924;-65
2023/08/30 10:39:34;;;;;;;;;;;;;;;32.17;34.64;95474.28;5074094;28;19931;-66
2023/08/30 10:42:00;;;;;;;;;;;;;;;31.99;35.44;95473.19;5073891;28;19947;-65
2023/08/30 10:44:27;;;;;;;;;;;;;;;31.94;35.88;95467.59;5073945;28;19972;-66
2023/08/30 10:46:54;;;;;;;;;;;;;;;31.66;34.87;95472.31;5074029;28;19925;-66
2023/08/30 10:49:21;;;;;;;;;;;;;;;31.71;35.96;95463.56;5073766;28;19928;-66
2023/08/30 10:51:55;;;;;;;;;;;;;;;31.64;35.49;95461.72;5073582;28;19929;-66
2023/08/30 10:54:24;;;;;;;;;;;;;;;31.63;35.61;95470.06;5073786;28;19924;-65
2023/08/30 10:56:56;;;;;;;;;;;;;;;31.63;35.89;95461.94;5073710;28;20278;-66
2023/08/30 10:59:24;;;;;;;;;;;;;;;31.75;35.15;95459.38;5073469;28;19925;-66
2023/08/30 11:01:52;;;;;;;;;;;;;;;31.71;35.29;95466.28;5073830;28;19978;-65
2023/08/30 11:04:19;;;;;;;;;;;;;;;31.39;36.28;95451.72;5073142;28;19980;-65
2023/08/30 11:06:47;;;;;;;;;;;;;;;31.44;36.61;95447.53;5073554;28;19979;-65
2023/08/30 11:09:17;;;;;;;;;;;;;;;31.54;36.50;95447.88;5073677;28;19932;-66
2023/08/30 11:11:46;;;;;;;;;;;;;;;31.84;36.20;95438.34;5073383;28;19978;-66
2023/08/30 11:14:15;;;;;;;;;;;;;;;32.07;36.50;95437.75;5072907;28;20217;-66
2023/08/30 11:16:42;;;;;;;;;;;;;;;32.29;36.17;95437.31;5073388;28;19924;-66
2023/08/30 11:19:09;;;;;;;;;;;;;;;32.42;34.07;95436.38;5073382;28;20301;-66
2023/08/30 11:21:37;;;;;;;;;;;;;;;32.64;33.70;95436.78;5073263;28;20275;-66
2023/08/30 11:24:04;;;;;;;;;;;;;;;32.53;33.84;95437.53;5073550;28;19929;-65
2023/08/30 11:26:31;;;;;;;;;;;;;;;31.95;33.65;95448.44;5073502;28;19943;-65
2023/08/30 11:29:04;;;;;;;;;;;;;;;31.80;34.24;95421.72;5073249;28;19924;-66
2023/08/30 11:31:31;;;;;;;;;;;;;;;31.80;34.33;95416.31;5073573;28;19932;-66
2023/08/30 11:33:58;;;;;;;;;;;;;;;32.06;32.75;95419.88;5073494;28;20019;-65
2023/08/30 11:36:27;;;;;;;;;;;;;;;32.14;32.48;95425.00;5073285;28;19956;-66
2023/08/30 11:38:53;;;;;;;;;;;;;;;32.46;31.80;95412.41;5073216;28;19975;-66
2023/08/30 11:41:21;;;;;;;;;;;;;;;32.68;32.35;95420.09;5073118;28;20432;-66
2023/08/30 11:43:48;;;;;;;;;;;;;;;32.59;30.33;95419.59;5073195;28;19925;-66
2023/08/30 11:46:17;;;;;;;;;;;;;;;32.57;30.96;95424.38;5073085;28;20416;-66
2023/08/30 11:48:44;;;;;;;;;;;;;;;32.68;29.20;95407.38;5073404;28;19924;-66
2023/08/30 11:51:11;;;;;;;;;;;;;;;32.77;30.57;95416.03;5073047;28;19924;-67
2023/08/30 11:53:39;;;;;;;;;;;;;;;32.73;30.46;95412.94;5073010;28;20655;-65
2023/08/30 11:56:07;;;;;;;;;;;;;;;32.68;31.13;95417.41;5073050;28;19931;-66
2023/08/30 11:58:34;;;;;;;;;;;;;;;32.85;31.48;95414.88;5073069;28;19930;-66
2023/08/30 12:01:01;;;;;;;;;;;;;;;32.95;30.46;95412.47;5073034;28;19925;-66
2023/08/30 12:03:29;;;;;;;;;;;;;;;33.01;30.79;95402.59;5073091;28;19929;-66
2023/08/30 12:05:56;;;;;;;;;;;;;;;33.14;30.90;95398.94;5073150;28;19928;-66
2023/08/30 12:08:25;;;;;;;;;;;;;;;33.25;30.92;95403.56;5072815;28;20377;-66
2023/08/30 12:10:52;;;;;;;;;;;;;;;33.25;30.96;95406.25;5072727;28;19931;-67
2023/08/30 12:13:25;;;;;;;;;;;;;;;33.39;30.08;95404.19;5073014;28;19925;-66
2023/08/30 12:15:52;;;;;;;;;;;;;;;33.42;29.70;95402.91;5074975;28;20042;-65
2023/08/30 12:18:21;;;;;;;;;;;;;;;33.33;30.85;95407.81;5076616;28;19925;-66
2023/08/30 12:20:58;;;;;;;;;;;;;;;33.26;29.49;95391.66;5076379;28;19970;-66
2023/08/30 12:23:25;;;;;;;;;;;;;;;33.43;29.88;95393.69;5076421;28;20398;-66
2023/08/30 12:26:02;;;;;;;;;;;;;;;33.43;29.74;95385.56;5076560;28;19967;-66
2023/08/30 12:28:29;;;;;;;;;;;;;;;33.51;29.43;95390.69;5076299;28;19932;-66
2023/08/30 12:30:56;;;;;;;;;;;;;;;33.64;29.57;95384.25;5076487;28;20290;-66
2023/08/30 12:33:25;;;;;;;;;;;;;;;33.72;29.57;95385.78;5076558;28;20015;-66
2023/08/30 12:35:52;;;;;;;;;;;;;;;33.76;29.51;95388.84;5076448;28;19925;-66
2023/08/30 12:38:20;;;;;;;;;;;;;;;33.15;29.70;95385.16;5076262;28;19924;-65
2023/08/30 12:40:48;;;;;;;;;;;;;;;33.20;30.70;95375.50;5076205;28;19959;-66
2023/08/30 12:43:15;;;;;;;;;;;;;;;33.11;29.81;95377.72;5076250;28;20352;-65
2023/08/30 12:45:43;;;;;;;;;;;;;;;33.20;30.33;95375.50;5076184;28;19925;-67
2023/08/30 12:48:10;;;;;;;;;;;;;;;33.31;30.48;95374.72;5076102;28;20386;-65
2023/08/30 12:50:38;;;;;;;;;;;;;;;33.40;30.68;95373.34;5076003;28;19925;-66